sensor_id;sensor_type;location;lat;lon;timestamp;pressure;altitude;pressure_sealevel;temperature
76541;BMP280;65385;55.772;37.658;2023-05-10T00:00:21;100812.28;;;10.40
76541;BMP280;65385;55.772;37.658;2023-05-10T00:01:22;100808.84;;;10.39
76541;BMP280;65385;55.772;37.658;2023-05-10T00:02:23;100814.31;;;10.38
76541;BMP280;65385;55.772;37.658;2023-05-10T00:03:25;100811.94;;;10.36
76541;BMP280;65385;55.772;37.658;2023-05-10T00:04:25;100810.53;;;10.33
76541;BMP280;65385;55.772;37.658;2023-05-10T00:05:27;100810.75;;;10.32
76541;BMP280;65385;55.772;37.658;2023-05-10T00:06:28;100811.81;;;10.31
76541;BMP280;65385;55.772;37.658;2023-05-10T00:07:28;100816.47;;;10.29
76541;BMP280;65385;55.772;37.658;2023-05-10T00:08:29;100817.50;;;10.28
76541;BMP280;65385;55.772;37.658;2023-05-10T00:09:30;100814.88;;;10.28
76541;BMP280;65385;55.772;37.658;2023-05-10T00:10:30;100818.31;;;10.28
76541;BMP280;65385;55.772;37.658;2023-05-10T00:11:31;100813.28;;;10.27
76541;BMP280;65385;55.772;37.658;2023-05-10T00:12:31;100809.88;;;10.26
76541;BMP280;65385;55.772;37.658;2023-05-10T00:13:32;100816.13;;;10.25
76541;BMP280;65385;55.772;37.658;2023-05-10T00:14:33;100807.47;;;10.25
76541;BMP280;65385;55.772;37.658;2023-05-10T00:15:34;100805.88;;;10.24
76541;BMP280;65385;55.772;37.658;2023-05-10T00:16:34;100806.38;;;10.21
76541;BMP280;65385;55.772;37.658;2023-05-10T00:17:35;100813.16;;;10.22
76541;BMP280;65385;55.772;37.658;2023-05-10T00:18:36;100808.72;;;10.22
76541;BMP280;65385;55.772;37.658;2023-05-10T00:19:36;100808.97;;;10.21
76541;BMP280;65385;55.772;37.658;2023-05-10T00:20:37;100811.59;;;10.21
76541;BMP280;65385;55.772;37.658;2023-05-10T00:21:37;100809.78;;;10.21
76541;BMP280;65385;55.772;37.658;2023-05-10T00:22:38;100810.00;;;10.20
76541;BMP280;65385;55.772;37.658;2023-05-10T00:23:39;100807.59;;;10.18
76541;BMP280;65385;55.772;37.658;2023-05-10T00:24:39;100818.84;;;10.19
76541;BMP280;65385;55.772;37.658;2023-05-10T00:25:40;100816.25;;;10.19
76541;BMP280;65385;55.772;37.658;2023-05-10T00:26:40;100806.78;;;10.18
76541;BMP280;65385;55.772;37.658;2023-05-10T00:27:42;100810.44;;;10.17
76541;BMP280;65385;55.772;37.658;2023-05-10T00:28:43;100807.81;;;10.17
76541;BMP280;65385;55.772;37.658;2023-05-10T00:29:44;100814.06;;;10.16
76541;BMP280;65385;55.772;37.658;2023-05-10T00:30:44;100818.50;;;10.15
76541;BMP280;65385;55.772;37.658;2023-05-10T00:31:45;100816.66;;;10.16
76541;BMP280;65385;55.772;37.658;2023-05-10T00:32:45;100818.50;;;10.15
76541;BMP280;65385;55.772;37.658;2023-05-10T00:33:48;100810.91;;;10.14
76541;BMP280;65385;55.772;37.658;2023-05-10T00:34:48;100812.72;;;10.13
76541;BMP280;65385;55.772;37.658;2023-05-10T00:35:49;100818.75;;;10.14
76541;BMP280;65385;55.772;37.658;2023-05-10T00:36:50;100814.53;;;10.13
76541;BMP280;65385;55.772;37.658;2023-05-10T00:37:50;100812.94;;;10.12
76541;BMP280;65385;55.772;37.658;2023-05-10T00:38:51;100815.56;;;10.12
76541;BMP280;65385;55.772;37.658;2023-05-10T00:39:52;100810.34;;;10.12
76541;BMP280;65385;55.772;37.658;2023-05-10T00:40:52;100808.50;;;10.12
76541;BMP280;65385;55.772;37.658;2023-05-10T00:41:59;100815.34;;;10.13
76541;BMP280;65385;55.772;37.658;2023-05-10T00:43:01;100813.53;;;10.14
76541;BMP280;65385;55.772;37.658;2023-05-10T00:44:02;100813.53;;;10.14
76541;BMP280;65385;55.772;37.658;2023-05-10T00:45:03;100814.84;;;10.16
76541;BMP280;65385;55.772;37.658;2023-05-10T00:46:06;100813.53;;;10.14
76541;BMP280;65385;55.772;37.658;2023-05-10T00:47:07;100813.28;;;10.15
76541;BMP280;65385;55.772;37.658;2023-05-10T00:48:08;100814.31;;;10.14
76541;BMP280;65385;55.772;37.658;2023-05-10T00:49:08;100816.91;;;10.14
76541;BMP280;65385;55.772;37.658;2023-05-10T00:50:09;100815.09;;;10.15
76541;BMP280;65385;55.772;37.658;2023-05-10T00:51:10;100817.72;;;10.15
76541;BMP280;65385;55.772;37.658;2023-05-10T00:52:11;100817.16;;;10.13
76541;BMP280;65385;55.772;37.658;2023-05-10T00:53:11;100811.94;;;10.13
76541;BMP280;65385;55.772;37.658;2023-05-10T00:54:14;100817.97;;;10.13
76541;BMP280;65385;55.772;37.658;2023-05-10T00:55:15;100812.94;;;10.12
76541;BMP280;65385;55.772;37.658;2023-05-10T00:56:16;100818.97;;;10.12
76541;BMP280;65385;55.772;37.658;2023-05-10T00:57:16;100821.81;;;10.11
76541;BMP280;65385;55.772;37.658;2023-05-10T00:58:18;100820.19;;;10.10
76541;BMP280;65385;55.772;37.658;2023-05-10T00:59:19;100822.03;;;10.09
76541;BMP280;65385;55.772;37.658;2023-05-10T01:00:19;100814.97;;;10.10
76541;BMP280;65385;55.772;37.658;2023-05-10T01:01:20;100818.81;;;10.07
76541;BMP280;65385;55.772;37.658;2023-05-10T01:02:21;100825.94;;;10.07
76541;BMP280;65385;55.772;37.658;2023-05-10T01:03:21;100815.47;;;10.07
76541;BMP280;65385;55.772;37.658;2023-05-10T01:04:22;100819.09;;;10.06
76541;BMP280;65385;55.772;37.658;2023-05-10T01:05:25;100808.06;;;10.04
76541;BMP280;65385;55.772;37.658;2023-05-10T01:06:27;100811.69;;;10.03
76541;BMP280;65385;55.772;37.658;2023-05-10T01:07:28;100809.06;;;10.03
76541;BMP280;65385;55.772;37.658;2023-05-10T01:08:29;100815.91;;;10.04
76541;BMP280;65385;55.772;37.658;2023-05-10T01:09:30;100811.88;;;10.01
76541;BMP280;65385;55.772;37.658;2023-05-10T01:10:31;100813.28;;;10.04
76541;BMP280;65385;55.772;37.658;2023-05-10T01:11:36;100820.31;;;10.03
76541;BMP280;65385;55.772;37.658;2023-05-10T01:12:39;100812.69;;;10.02
76541;BMP280;65385;55.772;37.658;2023-05-10T01:13:41;100812.91;;;10.00
76541;BMP280;65385;55.772;37.658;2023-05-10T01:14:43;100807.69;;;10.00
76541;BMP280;65385;55.772;37.658;2023-05-10T01:15:44;100817.34;;;10.00
76541;BMP280;65385;55.772;37.658;2023-05-10T01:16:48;100818.38;;;9.99
76541;BMP280;65385;55.772;37.658;2023-05-10T01:17:49;100817.59;;;9.98
76541;BMP280;65385;55.772;37.658;2023-05-10T01:18:51;100812.38;;;9.98
76541;BMP280;65385;55.772;37.658;2023-05-10T01:19:51;100810.78;;;9.97
76541;BMP280;65385;55.772;37.658;2023-05-10T01:21:02;100815.00;;;9.98
76541;BMP280;65385;55.772;37.658;2023-05-10T01:23:34;100816.81;;;9.98
76541;BMP280;65385;55.772;37.658;2023-05-10T01:32:02;100812.81;;;9.95
76541;BMP280;65385;55.772;37.658;2023-05-10T01:33:26;100813.81;;;9.94
76541;BMP280;65385;55.772;37.658;2023-05-10T01:36:40;100818.50;;;9.92
76541;BMP280;65385;55.772;37.658;2023-05-10T01:37:42;100816.91;;;9.91
76541;BMP280;65385;55.772;37.658;2023-05-10T01:38:57;100813.47;;;9.91
76541;BMP280;65385;55.772;37.658;2023-05-10T01:40:10;100820.31;;;9.92
76541;BMP280;65385;55.772;37.658;2023-05-10T01:42:01;100811.88;;;9.89
76541;BMP280;65385;55.772;37.658;2023-05-10T01:42:46;100812.91;;;9.88
76541;BMP280;65385;55.772;37.658;2023-05-10T01:44:11;100812.69;;;9.90
76541;BMP280;65385;55.772;37.658;2023-05-10T01:45:24;100810.31;;;9.88
76541;BMP280;65385;55.772;37.658;2023-05-10T01:46:33;100812.34;;;9.86
76541;BMP280;65385;55.772;37.658;2023-05-10T01:47:39;100812.34;;;9.86
76541;BMP280;65385;55.772;37.658;2023-05-10T01:48:47;100810.53;;;9.87
76541;BMP280;65385;55.772;37.658;2023-05-10T01:49:50;100811.31;;;9.87
76541;BMP280;65385;55.772;37.658;2023-05-10T01:50:52;100806.31;;;9.86
76541;BMP280;65385;55.772;37.658;2023-05-10T01:52:00;100809.72;;;9.86
76541;BMP280;65385;55.772;37.658;2023-05-10T01:53:06;100814.94;;;9.86
76541;BMP280;65385;55.772;37.658;2023-05-10T01:54:09;100812.59;;;9.85
76541;BMP280;65385;55.772;37.658;2023-05-10T01:55:15;100807.09;;;9.86
76541;BMP280;65385;55.772;37.658;2023-05-10T01:56:19;100804.50;;;9.86
76541;BMP280;65385;55.772;37.658;2023-05-10T01:57:26;100805.28;;;9.87
76541;BMP280;65385;55.772;37.658;2023-05-10T01:58:30;100808.72;;;9.87
76541;BMP280;65385;55.772;37.658;2023-05-10T01:59:34;100808.72;;;9.87
76541;BMP280;65385;55.772;37.658;2023-05-10T02:00:44;100807.69;;;9.88
76541;BMP280;65385;55.772;37.658;2023-05-10T02:01:46;100806.66;;;9.89
76541;BMP280;65385;55.772;37.658;2023-05-10T02:02:49;100800.41;;;9.91
76541;BMP280;65385;55.772;37.658;2023-05-10T02:03:51;100804.84;;;9.90
76541;BMP280;65385;55.772;37.658;2023-05-10T02:04:53;100803.56;;;9.93
76541;BMP280;65385;55.772;37.658;2023-05-10T02:05:55;100800.19;;;9.92
76541;BMP280;65385;55.772;37.658;2023-05-10T02:06:56;100796.53;;;9.93
76541;BMP280;65385;55.772;37.658;2023-05-10T02:07:58;100793.13;;;9.93
76541;BMP280;65385;55.772;37.658;2023-05-10T02:09:02;100793.13;;;9.93
76541;BMP280;65385;55.772;37.658;2023-05-10T02:10:05;100791.09;;;9.95
76541;BMP280;65385;55.772;37.658;2023-05-10T02:11:07;100785.28;;;9.93
76541;BMP280;65385;55.772;37.658;2023-05-10T02:12:09;100798.13;;;9.94
76541;BMP280;65385;55.772;37.658;2023-05-10T02:13:11;100788.69;;;9.93
76541;BMP280;65385;55.772;37.658;2023-05-10T02:14:12;100793.72;;;9.95
76541;BMP280;65385;55.772;37.658;2023-05-10T02:15:21;100792.91;;;9.94
76541;BMP280;65385;55.772;37.658;2023-05-10T02:16:24;100795.31;;;9.96
76541;BMP280;65385;55.772;37.658;2023-05-10T02:17:27;100795.31;;;9.96
76541;BMP280;65385;55.772;37.658;2023-05-10T02:18:29;100797.94;;;9.96
76541;BMP280;65385;55.772;37.658;2023-05-10T02:19:33;100799.53;;;9.97
76541;BMP280;65385;55.772;37.658;2023-05-10T02:20:34;100794.28;;;9.97
76541;BMP280;65385;55.772;37.658;2023-05-10T02:21:35;100796.91;;;9.97
76541;BMP280;65385;55.772;37.658;2023-05-10T02:22:36;100789.88;;;9.97
76541;BMP280;65385;55.772;37.658;2023-05-10T02:23:39;100790.66;;;9.98
76541;BMP280;65385;55.772;37.658;2023-05-10T02:24:40;100791.69;;;9.97
76541;BMP280;65385;55.772;37.658;2023-05-10T02:25:43;100793.81;;;10.00
76541;BMP280;65385;55.772;37.658;2023-05-10T02:26:45;100793.81;;;10.00
76541;BMP280;65385;55.772;37.658;2023-05-10T02:27:48;100793.81;;;10.00
76541;BMP280;65385;55.772;37.658;2023-05-10T02:28:50;100793.81;;;10.00
76541;BMP280;65385;55.772;37.658;2023-05-10T02:29:53;100792.25;;;9.99
76541;BMP280;65385;55.772;37.658;2023-05-10T02:30:54;100788.59;;;10.00
76541;BMP280;65385;55.772;37.658;2023-05-10T02:31:56;100789.16;;;10.02
76541;BMP280;65385;55.772;37.658;2023-05-10T02:32:58;100798.59;;;10.03
76541;BMP280;65385;55.772;37.658;2023-05-10T02:34:00;100781.31;;;10.02
76541;BMP280;65385;55.772;37.658;2023-05-10T02:35:02;100788.16;;;10.03
76541;BMP280;65385;55.772;37.658;2023-05-10T02:36:07;100786.13;;;10.05
76541;BMP280;65385;55.772;37.658;2023-05-10T02:37:08;100789.31;;;10.07
76541;BMP280;65385;55.772;37.658;2023-05-10T02:38:10;100790.84;;;10.08
76541;BMP280;65385;55.772;37.658;2023-05-10T02:39:13;100792.47;;;10.09
76541;BMP280;65385;55.772;37.658;2023-05-10T02:40:15;100789.84;;;10.09
76541;BMP280;65385;55.772;37.658;2023-05-10T02:41:18;100789.63;;;10.10
76541;BMP280;65385;55.772;37.658;2023-05-10T02:42:25;100786.81;;;10.12
76541;BMP280;65385;55.772;37.658;2023-05-10T02:43:30;100788.41;;;10.13
76541;BMP280;65385;55.772;37.658;2023-05-10T02:44:33;100786.59;;;10.13
76541;BMP280;65385;55.772;37.658;2023-05-10T02:45:36;100777.94;;;10.13
76541;BMP280;65385;55.772;37.658;2023-05-10T02:46:39;100778.50;;;10.15
76541;BMP280;65385;55.772;37.658;2023-05-10T02:47:39;100783.47;;;10.16
76541;BMP280;65385;55.772;37.658;2023-05-10T02:48:40;100781.66;;;10.17
76541;BMP280;65385;55.772;37.658;2023-05-10T02:49:41;100781.44;;;10.18
76541;BMP280;65385;55.772;37.658;2023-05-10T02:50:44;100778.63;;;10.20
76541;BMP280;65385;55.772;37.658;2023-05-10T02:51:50;100777.59;;;10.21
76541;BMP280;65385;55.772;37.658;2023-05-10T02:52:54;100776.56;;;10.22
76541;BMP280;65385;55.772;37.658;2023-05-10T02:53:56;100782.34;;;10.24
76541;BMP280;65385;55.772;37.658;2023-05-10T02:55:00;100779.72;;;10.24
76541;BMP280;65385;55.772;37.658;2023-05-10T02:56:12;100774.06;;;10.27
76541;BMP280;65385;55.772;37.658;2023-05-10T02:57:16;100780.31;;;10.26
76541;BMP280;65385;55.772;37.658;2023-05-10T02:58:19;100779.28;;;10.27
76541;BMP280;65385;55.772;37.658;2023-05-10T02:59:21;100775.66;;;10.28
76541;BMP280;65385;55.772;37.658;2023-05-10T03:00:22;100780.66;;;10.29
76541;BMP280;65385;55.772;37.658;2023-05-10T03:01:23;100780.44;;;10.31
76541;BMP280;65385;55.772;37.658;2023-05-10T03:02:23;100772.34;;;10.32
76541;BMP280;65385;55.772;37.658;2023-05-10T03:03:24;100784.41;;;10.33
76541;BMP280;65385;55.772;37.658;2023-05-10T03:04:25;100774.16;;;10.32
76541;BMP280;65385;55.772;37.658;2023-05-10T03:05:29;100779.75;;;10.35
76541;BMP280;65385;55.772;37.658;2023-05-10T03:06:33;100779.50;;;10.37
76541;BMP280;65385;55.772;37.658;2023-05-10T03:07:34;100777.47;;;10.39
76541;BMP280;65385;55.772;37.658;2023-05-10T03:08:35;100781.69;;;10.40
76541;BMP280;65385;55.772;37.658;2023-05-10T03:09:36;100785.88;;;10.41
76541;BMP280;65385;55.772;37.658;2023-05-10T03:10:42;100777.81;;;10.43
76541;BMP280;65385;55.772;37.658;2023-05-10T03:13:36;100776.88;;;10.49
76541;BMP280;65385;55.772;37.658;2023-05-10T03:14:42;100773.69;;;10.47
76541;BMP280;65385;55.772;37.658;2023-05-10T03:17:08;100778.22;;;10.51
76541;BMP280;65385;55.772;37.658;2023-05-10T03:18:28;100779.03;;;10.52
76541;BMP280;65385;55.772;37.658;2023-05-10T03:19:42;100773.56;;;10.53
76541;BMP280;65385;55.772;37.658;2023-05-10T03:20:51;100776.19;;;10.53
76541;BMP280;65385;55.772;37.658;2023-05-10T03:21:59;100773.56;;;10.53
76541;BMP280;65385;55.772;37.658;2023-05-10T03:24:40;100773.66;;;10.58
76541;BMP280;65385;55.772;37.658;2023-05-10T03:25:42;100773.44;;;10.60
76541;BMP280;65385;55.772;37.658;2023-05-10T03:26:45;100777.44;;;10.62
76541;BMP280;65385;55.772;37.658;2023-05-10T03:27:50;100769.88;;;10.66
76541;BMP280;65385;55.772;37.658;2023-05-10T03:28:52;100775.69;;;10.68
76541;BMP280;65385;55.772;37.658;2023-05-10T03:29:54;100771.84;;;10.70
76541;BMP280;65385;55.772;37.658;2023-05-10T03:30:56;100772.13;;;10.74
76541;BMP280;65385;55.772;37.658;2023-05-10T03:31:59;100775.13;;;10.77
76541;BMP280;65385;55.772;37.658;2023-05-10T03:33:05;100767.84;;;10.79
76541;BMP280;65385;55.772;37.658;2023-05-10T03:34:08;100777.00;;;10.82
76541;BMP280;65385;55.772;37.658;2023-05-10T03:35:10;100774.19;;;10.83
76541;BMP280;65385;55.772;37.658;2023-05-10T03:36:11;100771.13;;;10.87
76541;BMP280;65385;55.772;37.658;2023-05-10T03:37:12;100772.69;;;10.88
76541;BMP280;65385;55.772;37.658;2023-05-10T03:38:12;100776.66;;;10.90
76541;BMP280;65385;55.772;37.658;2023-05-10T03:39:14;100775.63;;;10.91
76541;BMP280;65385;55.772;37.658;2023-05-10T03:40:14;100766.75;;;10.92
76541;BMP280;65385;55.772;37.658;2023-05-10T03:41:17;100773.13;;;10.96
76541;BMP280;65385;55.772;37.658;2023-05-10T03:42:18;100767.63;;;10.98
76541;BMP280;65385;55.772;37.658;2023-05-10T03:43:18;100774.25;;;11.00
76541;BMP280;65385;55.772;37.658;2023-05-10T03:44:19;100774.56;;;11.04
76541;BMP280;65385;55.772;37.658;2023-05-10T03:45:20;100776.13;;;11.05
76541;BMP280;65385;55.772;37.658;2023-05-10T03:46:20;100778.31;;;11.08
76541;BMP280;65385;55.772;37.658;2023-05-10T03:47:21;100773.06;;;11.08
76541;BMP280;65385;55.772;37.658;2023-05-10T03:48:22;100773.06;;;11.08
76541;BMP280;65385;55.772;37.658;2023-05-10T03:49:22;100774.41;;;11.10
76541;BMP280;65385;55.772;37.658;2023-05-10T03:50:23;100782.06;;;11.12
76541;BMP280;65385;55.772;37.658;2023-05-10T03:51:24;100777.84;;;11.11
76541;BMP280;65385;55.772;37.658;2023-05-10T03:52:28;100781.78;;;11.13
76541;BMP280;65385;55.772;37.658;2023-05-10T03:53:29;100780.78;;;11.14
76541;BMP280;65385;55.772;37.658;2023-05-10T03:54:29;100770.06;;;11.16
76541;BMP280;65385;55.772;37.658;2023-05-10T03:55:30;100783.50;;;11.19
76541;BMP280;65385;55.772;37.658;2023-05-10T03:56:34;100769.13;;;11.22
76541;BMP280;65385;55.772;37.658;2023-05-10T03:57:35;100777.88;;;11.27
76541;BMP280;65385;55.772;37.658;2023-05-10T03:58:35;100770.78;;;11.28
76541;BMP280;65385;55.772;37.658;2023-05-10T03:59:36;100771.38;;;11.30
76541;BMP280;65385;55.772;37.658;2023-05-10T04:00:37;100779.28;;;11.35
76541;BMP280;65385;55.772;37.658;2023-05-10T04:01:38;100774.63;;;11.37
76541;BMP280;65385;55.772;37.658;2023-05-10T04:02:38;100771.75;;;11.39
76541;BMP280;65385;55.772;37.658;2023-05-10T04:03:39;100771.06;;;11.43
76541;BMP280;65385;55.772;37.658;2023-05-10T04:04:40;100766.72;;;11.49
76541;BMP280;65385;55.772;37.658;2023-05-10T04:05:41;100780.13;;;11.52
76541;BMP280;65385;55.772;37.658;2023-05-10T04:06:41;100771.78;;;11.55
76541;BMP280;65385;55.772;37.658;2023-05-10T04:07:42;100766.06;;;11.58
76541;BMP280;65385;55.772;37.658;2023-05-10T04:08:44;100776.06;;;11.61
76541;BMP280;65385;55.772;37.658;2023-05-10T04:09:45;100773.00;;;11.64
76541;BMP280;65385;55.772;37.658;2023-05-10T04:10:46;100773.28;;;11.68
76541;BMP280;65385;55.772;37.658;2023-05-10T04:11:46;100779.09;;;11.70
76541;BMP280;65385;55.772;37.658;2023-05-10T04:12:47;100771.00;;;11.71
76541;BMP280;65385;55.772;37.658;2023-05-10T04:13:47;100769.72;;;11.74
76541;BMP280;65385;55.772;37.658;2023-05-10T04:14:48;100767.91;;;11.74
76541;BMP280;65385;55.772;37.658;2023-05-10T04:15:49;100769.56;;;11.80
76541;BMP280;65385;55.772;37.658;2023-05-10T04:16:50;100765.66;;;11.83
76541;BMP280;65385;55.772;37.658;2023-05-10T04:17:50;100763.38;;;11.87
76541;BMP280;65385;55.772;37.658;2023-05-10T04:18:51;100765.25;;;11.91
76541;BMP280;65385;55.772;37.658;2023-05-10T04:19:51;100763.47;;;11.97
76541;BMP280;65385;55.772;37.658;2023-05-10T04:20:55;100768.00;;;12.01
76541;BMP280;65385;55.772;37.658;2023-05-10T04:21:55;100761.25;;;12.05
76541;BMP280;65385;55.772;37.658;2023-05-10T04:22:56;100758.72;;;12.10
76541;BMP280;65385;55.772;37.658;2023-05-10T04:23:56;100766.41;;;12.17
76541;BMP280;65385;55.772;37.658;2023-05-10T04:24:57;100761.97;;;12.17
76541;BMP280;65385;55.772;37.658;2023-05-10T04:26:01;100763.53;;;12.18
76541;BMP280;65385;55.772;37.658;2023-05-10T04:27:02;100760.66;;;12.20
76541;BMP280;65385;55.772;37.658;2023-05-10T04:28:03;100767.03;;;12.24
76541;BMP280;65385;55.772;37.658;2023-05-10T04:29:03;100763.09;;;12.26
76541;BMP280;65385;55.772;37.658;2023-05-10T04:30:04;100764.94;;;12.26
76541;BMP280;65385;55.772;37.658;2023-05-10T04:31:07;100765.25;;;12.29
76541;BMP280;65385;55.772;37.658;2023-05-10T04:32:08;100761.34;;;12.32
76541;BMP280;65385;55.772;37.658;2023-05-10T04:33:10;100760.88;;;12.35
76541;BMP280;65385;55.772;37.658;2023-05-10T04:34:11;100748.84;;;12.39
76541;BMP280;65385;55.772;37.658;2023-05-10T04:35:11;100761.78;;;12.46
76541;BMP280;65385;55.772;37.658;2023-05-10T04:36:12;100759.19;;;12.51
76541;BMP280;65385;55.772;37.658;2023-05-10T04:37:13;100757.44;;;12.56
76541;BMP280;65385;55.772;37.658;2023-05-10T04:38:13;100750.66;;;12.60
76541;BMP280;65385;55.772;37.658;2023-05-10T04:39:14;100757.56;;;12.66
76541;BMP280;65385;55.772;37.658;2023-05-10T04:40:14;100750.78;;;12.70
76541;BMP280;65385;55.772;37.658;2023-05-10T04:41:15;100752.41;;;12.76
76541;BMP280;65385;55.772;37.658;2023-05-10T04:42:16;100753.50;;;12.80
76541;BMP280;65385;55.772;37.658;2023-05-10T04:43:16;100755.38;;;12.85
76541;BMP280;65385;55.772;37.658;2023-05-10T04:44:17;100756.75;;;12.93
76541;BMP280;65385;55.772;37.658;2023-05-10T04:45:18;100752.91;;;13.00
76541;BMP280;65385;55.772;37.658;2023-05-10T04:46:18;100749.03;;;13.08
76541;BMP280;65385;55.772;37.658;2023-05-10T04:47:19;100747.78;;;13.10
76541;BMP280;65385;55.772;37.658;2023-05-10T04:48:19;100750.44;;;13.15
76541;BMP280;65385;55.772;37.658;2023-05-10T04:49:20;100755.19;;;13.18
76541;BMP280;65385;55.772;37.658;2023-05-10T04:50:22;100750.72;;;13.19
76541;BMP280;65385;55.772;37.658;2023-05-10T04:51:22;100743.63;;;13.19
76541;BMP280;65385;55.772;37.658;2023-05-10T04:52:23;100745.75;;;13.22
76541;BMP280;65385;55.772;37.658;2023-05-10T04:53:24;100743.72;;;13.29
76541;BMP280;65385;55.772;37.658;2023-05-10T04:54:24;100746.88;;;13.31
76541;BMP280;65385;55.772;37.658;2023-05-10T04:55:25;100750.31;;;13.37
76541;BMP280;65385;55.772;37.658;2023-05-10T04:56:27;100748.59;;;13.48
76541;BMP280;65385;55.772;37.658;2023-05-10T04:57:27;100744.97;;;13.59
76541;BMP280;65385;55.772;37.658;2023-05-10T04:58:28;100746.84;;;13.63
76541;BMP280;65385;55.772;37.658;2023-05-10T04:59:28;100746.91;;;13.73
76541;BMP280;65385;55.772;37.658;2023-05-10T05:00:29;100737.47;;;13.82
76541;BMP280;65385;55.772;37.658;2023-05-10T05:01:30;100740.19;;;13.93
76541;BMP280;65385;55.772;37.658;2023-05-10T05:02:30;100743.09;;;14.01
76541;BMP280;65385;55.772;37.658;2023-05-10T05:03:31;100741.81;;;14.04
76541;BMP280;65385;55.772;37.658;2023-05-10T05:04:32;100737.34;;;14.09
76541;BMP280;65385;55.772;37.658;2023-05-10T05:05:33;100740.25;;;14.13
76541;BMP280;65385;55.772;37.658;2023-05-10T05:06:34;100739.22;;;14.19
76541;BMP280;65385;55.772;37.658;2023-05-10T05:07:34;100737.16;;;14.21
76541;BMP280;65385;55.772;37.658;2023-05-10T05:08:35;100739.00;;;14.25
76541;BMP280;65385;55.772;37.658;2023-05-10T05:09:35;100737.72;;;14.28
76541;BMP280;65385;55.772;37.658;2023-05-10T05:10:36;100736.69;;;14.34
76541;BMP280;65385;55.772;37.658;2023-05-10T05:11:37;100733.25;;;14.38
76541;BMP280;65385;55.772;37.658;2023-05-10T05:12:38;100737.47;;;14.45
76541;BMP280;65385;55.772;37.658;2023-05-10T05:13:39;100739.63;;;14.53
76541;BMP280;65385;55.772;37.658;2023-05-10T05:14:40;100737.81;;;14.58
76541;BMP280;65385;55.772;37.658;2023-05-10T05:15:41;100733.81;;;14.61
76541;BMP280;65385;55.772;37.658;2023-05-10T05:16:42;100740.97;;;14.65
76541;BMP280;65385;55.772;37.658;2023-05-10T05:17:43;100731.22;;;14.71
76541;BMP280;65385;55.772;37.658;2023-05-10T05:18:44;100736.75;;;14.74
76541;BMP280;65385;55.772;37.658;2023-05-10T05:19:44;100734.66;;;14.81
76541;BMP280;65385;55.772;37.658;2023-05-10T05:20:45;100724.13;;;14.92
76541;BMP280;65385;55.772;37.658;2023-05-10T05:21:46;100738.09;;;15.07
76541;BMP280;65385;55.772;37.658;2023-05-10T05:22:47;100728.88;;;15.15
76541;BMP280;65385;55.772;37.658;2023-05-10T05:23:47;100730.44;;;15.21
76541;BMP280;65385;55.772;37.658;2023-05-10T05:24:48;100733.31;;;15.24
76541;BMP280;65385;55.772;37.658;2023-05-10T05:25:48;100718.31;;;15.30
76541;BMP280;65385;55.772;37.658;2023-05-10T05:26:49;100726.72;;;15.42
76541;BMP280;65385;55.772;37.658;2023-05-10T05:27:49;100728.31;;;15.53
76541;BMP280;65385;55.772;37.658;2023-05-10T05:28:50;100723.53;;;15.55
76541;BMP280;65385;55.772;37.658;2023-05-10T05:29:57;100728.25;;;15.63
76541;BMP280;65385;55.772;37.658;2023-05-10T05:30:58;100711.59;;;15.73
76541;BMP280;65385;55.772;37.658;2023-05-10T05:31:59;100730.59;;;15.80
76541;BMP280;65385;55.772;37.658;2023-05-10T05:33:00;100721.88;;;15.79
76541;BMP280;65385;55.772;37.658;2023-05-10T05:34:00;100724.47;;;15.84
76541;BMP280;65385;55.772;37.658;2023-05-10T05:35:01;100716.53;;;15.94
76541;BMP280;65385;55.772;37.658;2023-05-10T05:36:03;100719.13;;;15.99
76541;BMP280;65385;55.772;37.658;2023-05-10T05:37:05;100719.69;;;16.02
76541;BMP280;65385;55.772;37.658;2023-05-10T05:38:06;100707.50;;;16.11
76541;BMP280;65385;55.772;37.658;2023-05-10T05:39:06;100705.34;;;16.13
76541;BMP280;65385;55.772;37.658;2023-05-10T05:40:08;100720.06;;;16.29
76541;BMP280;65385;55.772;37.658;2023-05-10T05:41:08;100720.81;;;16.34
76541;BMP280;65385;55.772;37.658;2023-05-10T05:42:10;100715.22;;;16.41
76541;BMP280;65385;55.772;37.658;2023-05-10T05:43:10;100713.06;;;16.48
76541;BMP280;65385;55.772;37.658;2023-05-10T05:44:11;100701.69;;;16.52
76541;BMP280;65385;55.772;37.658;2023-05-10T05:45:12;100710.88;;;16.60
76541;BMP280;65385;55.772;37.658;2023-05-10T05:46:15;100720.41;;;16.56
76541;BMP280;65385;55.772;37.658;2023-05-10T05:47:16;100704.81;;;16.60
76541;BMP280;65385;55.772;37.658;2023-05-10T05:48:16;100710.63;;;16.57
76541;BMP280;65385;55.772;37.658;2023-05-10T05:49:17;100716.22;;;16.50
76541;BMP280;65385;55.772;37.658;2023-05-10T05:50:17;100711.03;;;16.40
76541;BMP280;65385;55.772;37.658;2023-05-10T05:51:18;100720.53;;;16.36
76541;BMP280;65385;55.772;37.658;2023-05-10T05:52:19;100713.44;;;16.31
76541;BMP280;65385;55.772;37.658;2023-05-10T05:53:19;100715.03;;;16.32
76541;BMP280;65385;55.772;37.658;2023-05-10T05:54:20;100718.16;;;16.39
76541;BMP280;65385;55.772;37.658;2023-05-10T05:55:21;100698.88;;;16.39
76541;BMP280;65385;55.772;37.658;2023-05-10T05:56:21;100711.03;;;16.40
76541;BMP280;65385;55.772;37.658;2023-05-10T05:57:24;100708.06;;;16.41
76541;BMP280;65385;55.772;37.658;2023-05-10T05:58:26;100706.22;;;16.47
76541;BMP280;65385;55.772;37.658;2023-05-10T05:59:28;100705.13;;;16.48
76541;BMP280;65385;55.772;37.658;2023-05-10T06:00:29;100705.91;;;16.48
76541;BMP280;65385;55.772;37.658;2023-05-10T06:01:29;100702.97;;;16.55
76541;BMP280;65385;55.772;37.658;2023-05-10T06:02:30;100708.25;;;16.55
76541;BMP280;65385;55.772;37.658;2023-05-10T06:03:31;100702.22;;;16.55
76541;BMP280;65385;55.772;37.658;2023-05-10T06:04:32;100702.97;;;16.55